createdAt,value
2022-12-15T00:02:27.130Z,5.18
2022-12-15T00:05:12.985Z,5.32
2022-12-15T00:07:58.386Z,5.32
2022-12-15T00:10:43.544Z,4.32
2022-12-15T00:13:30.680Z,4.10
2022-12-15T00:16:16.542Z,4.30
2022-12-15T00:19:03.745Z,3.92
2022-12-15T00:21:49.076Z,4.32
2022-12-15T00:24:34.321Z,3.95
2022-12-15T00:27:19.724Z,3.53
2022-12-15T00:30:05.271Z,3.83
2022-12-15T00:32:50.712Z,2.70
2022-12-15T00:35:37.778Z,6.32
2022-12-15T00:38:27.337Z,6.10
2022-12-15T00:40:59.159Z,5.68
2022-12-15T00:43:27.685Z,4.53
2022-12-15T00:46:16.242Z,5.05
2022-12-15T00:48:44.624Z,4.10
2022-12-15T00:51:17.971Z,5.47
2022-12-15T00:54:04.274Z,4.45
2022-12-15T00:56:49.904Z,3.75
2022-12-15T00:59:35.912Z,4.07
2022-12-15T01:02:22.395Z,4.35
2022-12-15T01:05:07.796Z,4.57
2022-12-15T01:07:54.398Z,4.03
2022-12-15T01:10:39.686Z,4.15
2022-12-15T01:13:25.152Z,3.28
2022-12-15T01:16:10.547Z,3.25
2022-12-15T01:18:55.871Z,3.22
2022-12-15T01:21:25.500Z,4.28
2022-12-15T01:23:55.484Z,6.20
2022-12-15T01:26:23.658Z,6.35
2022-12-15T01:28:51.408Z,5.40
2022-12-15T01:31:19.355Z,5.20
2022-12-15T01:33:47.343Z,7.50
2022-12-15T01:36:15.295Z,7.25
2022-12-15T01:38:43.036Z,6.13
2022-12-15T01:41:12.505Z,6.03
2022-12-15T01:43:41.865Z,6.18
2022-12-15T01:46:11.244Z,5.28
2022-12-15T01:48:45.372Z,6.15
2022-12-15T01:51:20.815Z,6.40
2022-12-15T01:53:54.533Z,5.97
2022-12-15T01:56:25.899Z,5.40
2022-12-15T01:58:57.386Z,4.63
2022-12-15T02:01:25.157Z,6.00
2022-12-15T02:03:52.974Z,3.97
2022-12-15T02:06:22.715Z,4.45
2022-12-15T02:08:54.857Z,3.40
2022-12-15T02:11:39.878Z,5.43
2022-12-15T02:14:09.081Z,4.38
2022-12-15T02:16:53.439Z,5.03
2022-12-15T02:19:43.950Z,7.22
2022-12-15T02:22:24.753Z,7.32
2022-12-15T02:25:08.402Z,8.35
2022-12-15T02:27:57.753Z,8.35
2022-12-15T02:31:10.424Z,5.45
2022-12-15T02:33:45.667Z,5.75
2022-12-15T02:36:19.775Z,6.90
2022-12-15T02:38:47.628Z,4.78
2022-12-15T02:41:37.222Z,4.32
2022-12-15T02:44:11.421Z,4.43
2022-12-15T02:46:54.673Z,5.10
2022-12-15T02:49:31.888Z,4.10
2022-12-15T02:52:10.721Z,6.35
2022-12-15T02:54:58.318Z,6.65
2022-12-15T02:57:32.973Z,6.07
2022-12-15T03:00:05.152Z,8.32
2022-12-15T03:02:37.663Z,7.85
2022-12-15T03:05:06.912Z,6.38
2022-12-15T03:07:34.673Z,5.40
2022-12-15T03:10:05.916Z,4.63
2022-12-15T03:12:33.826Z,6.00
2022-12-15T03:15:01.579Z,4.95
2022-12-15T03:17:29.451Z,4.43
2022-12-15T03:19:58.845Z,4.13
2022-12-15T03:22:26.837Z,4.63
2022-12-15T03:24:54.755Z,5.20
2022-12-15T03:27:22.934Z,3.65
2022-12-15T03:29:50.698Z,4.78
2022-12-15T03:32:18.666Z,3.83
2022-12-15T03:34:46.597Z,4.55
2022-12-15T03:37:15.823Z,3.63
2022-12-15T03:39:43.641Z,3.47
2022-12-15T03:42:11.405Z,3.92
2022-12-15T03:44:39.197Z,3.13
2022-12-15T03:47:07.436Z,3.75
2022-12-15T03:49:35.334Z,3.35
2022-12-15T03:52:03.146Z,4.07
2022-12-15T03:54:32.282Z,3.30
2022-12-15T03:57:00.212Z,3.60
2022-12-15T03:59:28.142Z,5.93
2022-12-15T04:01:58.014Z,3.72
2022-12-15T04:04:25.921Z,3.33
2022-12-15T04:06:53.763Z,4.10
2022-12-15T04:09:24.477Z,3.08
2022-12-15T04:11:53.706Z,3.65
2022-12-15T04:14:21.809Z,3.83
2022-12-15T04:16:49.847Z,3.42
2022-12-15T04:19:35.696Z,3.38
2022-12-15T04:22:04.637Z,4.07
2022-12-15T04:24:50.076Z,3.80
2022-12-15T04:27:37.095Z,4.07
2022-12-15T04:30:25.406Z,3.60
2022-12-15T04:33:10.744Z,3.78
2022-12-15T04:35:55.981Z,3.53
2022-12-15T04:38:50.166Z,2.92
2022-12-15T04:41:37.976Z,3.17
2022-12-15T04:44:25.263Z,2.67
2022-12-15T04:47:10.520Z,3.08
2022-12-15T04:49:58.997Z,3.00
2022-12-15T04:52:47.186Z,4.30
2022-12-15T04:55:32.779Z,4.00
2022-12-15T04:58:23.522Z,3.42
2022-12-15T05:01:10.718Z,3.92
2022-12-15T05:03:56.455Z,2.97
2022-12-15T05:06:41.672Z,3.42
2022-12-15T05:09:28.285Z,3.92
2022-12-15T05:12:13.932Z,3.65
2022-12-15T05:15:01.300Z,4.28
2022-12-15T05:17:48.389Z,3.72
2022-12-15T05:20:33.867Z,3.45
2022-12-15T05:23:19.334Z,4.65
2022-12-15T05:26:04.560Z,3.63
2022-12-15T05:28:49.831Z,4.07
2022-12-15T05:31:37.572Z,3.47
2022-12-15T05:34:07.041Z,2.85
2022-12-15T05:36:34.953Z,3.80
2022-12-15T05:39:02.968Z,3.50
2022-12-15T05:41:30.831Z,4.53
2022-12-15T05:43:58.701Z,3.05
2022-12-15T05:46:26.627Z,3.85
2022-12-15T05:48:54.600Z,3.08
2022-12-15T05:51:40.393Z,3.38
2022-12-15T05:54:08.815Z,4.00
2022-12-15T05:56:39.953Z,3.45
2022-12-15T05:59:08.020Z,3.35
2022-12-15T06:01:38.920Z,3.08
2022-12-15T06:04:07.428Z,3.90
2022-12-15T06:06:37.050Z,4.65
2022-12-15T06:09:05.036Z,3.50
2022-12-15T06:11:32.924Z,3.45
2022-12-15T06:14:00.898Z,3.60
2022-12-15T06:16:29.634Z,3.25
2022-12-15T06:19:02.807Z,3.35
2022-12-15T06:21:32.791Z,3.58
2022-12-15T06:24:02.549Z,3.53
2022-12-15T06:26:33.650Z,4.22
2022-12-15T06:29:03.576Z,4.35
2022-12-15T06:31:32.469Z,4.45
2022-12-15T06:34:02.313Z,3.65
2022-12-15T06:36:31.413Z,4.13
2022-12-15T06:39:00.478Z,4.20
2022-12-15T06:41:31.037Z,4.63
2022-12-15T06:43:59.571Z,3.55
2022-12-15T06:46:29.401Z,3.65
2022-12-15T06:48:57.815Z,3.47
2022-12-15T06:51:26.466Z,4.57
2022-12-15T06:53:57.762Z,3.70
2022-12-15T06:56:34.014Z,3.53
2022-12-15T06:59:06.408Z,3.88
2022-12-15T07:01:36.059Z,3.50
2022-12-15T07:04:05.632Z,3.30
2022-12-15T07:06:37.543Z,4.43
2022-12-15T07:09:08.338Z,3.58
2022-12-15T07:11:37.645Z,3.50
2022-12-15T07:14:05.905Z,3.80
2022-12-15T07:16:34.286Z,4.30
2022-12-15T07:19:02.560Z,4.40
2022-12-15T07:21:30.792Z,3.90
2022-12-15T07:24:00.004Z,3.42
2022-12-15T07:26:31.708Z,3.33
2022-12-15T07:29:01.147Z,3.08
2022-12-15T07:31:29.116Z,3.50
2022-12-15T07:33:59.227Z,3.47
2022-12-15T07:36:27.741Z,3.88
2022-12-15T07:39:00.678Z,3.60
2022-12-15T07:41:30.199Z,3.88
2022-12-15T07:44:00.110Z,4.53
2022-12-15T07:46:29.133Z,4.40
2022-12-15T07:48:57.110Z,3.85
2022-12-15T07:51:27.109Z,3.30
2022-12-15T07:53:58.123Z,3.47
2022-12-15T07:56:26.003Z,3.85
2022-12-15T07:58:54.273Z,3.92
2022-12-15T08:01:24.761Z,4.28
2022-12-15T08:03:52.737Z,3.67
2022-12-15T08:06:20.602Z,4.05
2022-12-15T08:08:50.416Z,4.22
2022-12-15T08:11:22.044Z,2.75
2022-12-15T08:14:10.574Z,4.93
2022-12-15T08:16:40.756Z,4.72
2022-12-15T08:19:15.247Z,4.38
2022-12-15T08:24:12.378Z,5.22
2022-12-15T08:26:43.160Z,3.55
2022-12-15T08:29:49.428Z,4.53
2022-12-15T08:32:11.085Z,4.13
2022-12-15T08:34:42.602Z,5.30
2022-12-15T08:37:11.074Z,4.18
2022-12-15T08:39:39.010Z,3.88
2022-12-15T08:42:07.022Z,3.38
2022-12-15T08:44:35.230Z,4.10
2022-12-15T08:47:03.153Z,4.63
2022-12-15T08:49:32.363Z,4.57
2022-12-15T08:52:00.235Z,5.75
2022-12-15T08:54:28.016Z,3.95
2022-12-15T08:56:56.217Z,3.92
2022-12-15T08:59:25.225Z,4.30
2022-12-15T09:01:53.219Z,3.67
2022-12-15T09:04:24.041Z,3.80
2022-12-15T09:06:53.511Z,4.47
2022-12-15T09:09:21.578Z,6.03
2022-12-15T09:11:49.630Z,5.10
2022-12-15T09:14:25.671Z,4.95
2022-12-15T09:16:56.885Z,5.80
2022-12-15T09:19:27.897Z,4.13
2022-12-15T09:21:57.398Z,4.43
2022-12-15T09:24:34.786Z,5.15
2022-12-15T09:27:04.224Z,5.97
2022-12-15T09:29:32.279Z,5.45
2022-12-15T09:32:00.622Z,4.13
2022-12-15T09:34:28.858Z,4.85
2022-12-15T09:36:58.154Z,4.82
2022-12-15T09:39:26.120Z,5.53
2022-12-15T09:41:58.363Z,4.22
2022-12-15T09:44:28.989Z,4.63
2022-12-15T09:47:06.152Z,4.55
2022-12-15T09:49:47.166Z,4.50
2022-12-15T09:52:23.547Z,4.22
2022-12-15T09:54:55.078Z,3.40
2022-12-15T09:57:30.446Z,3.88
2022-12-15T10:00:21.541Z,4.65
2022-12-15T10:03:22.964Z,3.33
2022-12-15T10:06:25.974Z,3.80
2022-12-15T10:09:04.101Z,4.13
2022-12-15T10:14:38.880Z,3.13
2022-12-15T10:17:21.430Z,7.32
2022-12-15T10:19:56.424Z,4.15
2022-12-15T10:22:26.964Z,4.43
2022-12-15T10:25:11.793Z,4.53
2022-12-15T10:27:59.885Z,4.55
2022-12-15T10:30:27.976Z,3.60
2022-12-15T10:33:03.400Z,3.38
2022-12-15T10:35:33.305Z,4.03
2022-12-15T10:38:04.411Z,3.60
2022-12-15T10:40:50.160Z,3.55
2022-12-15T10:43:26.936Z,3.60
2022-12-15T10:46:03.555Z,3.72
2022-12-15T10:48:31.741Z,4.13
2022-12-15T10:51:29.008Z,4.35
2022-12-15T10:54:07.014Z,4.72
2022-12-15T10:56:46.799Z,5.43
2022-12-15T10:59:27.180Z,5.80
2022-12-15T11:01:55.214Z,5.55
2022-12-15T11:04:28.493Z,4.47
2022-12-15T11:07:00.853Z,5.40
2022-12-15T11:09:33.225Z,6.28
2022-12-15T11:12:20.708Z,4.68
2022-12-15T11:14:51.498Z,4.00
2022-12-15T11:17:22.115Z,3.25
2022-12-15T11:20:02.691Z,4.35
2022-12-15T11:22:41.352Z,3.22
2022-12-15T11:25:21.445Z,3.47
2022-12-15T11:27:58.856Z,3.35
2022-12-15T11:30:32.435Z,3.17
2022-12-15T11:33:04.085Z,3.07
2022-12-15T11:35:46.292Z,3.53
2022-12-15T11:38:25.049Z,5.38
2022-12-15T11:40:55.585Z,4.38
2022-12-15T11:43:51.126Z,4.20
2022-12-15T11:46:24.411Z,3.30
2022-12-15T11:49:25.357Z,3.10
2022-12-15T11:51:59.906Z,4.20
2022-12-15T11:54:39.088Z,3.33
2022-12-15T11:57:31.591Z,3.45
2022-12-15T12:00:08.992Z,3.22
2022-12-15T12:02:58.624Z,2.83
2022-12-15T12:05:42.184Z,3.28
2022-12-15T12:08:51.300Z,4.15
2022-12-15T12:11:23.031Z,3.15
2022-12-15T12:14:15.241Z,3.33
2022-12-15T12:16:56.791Z,2.95
2022-12-15T12:19:28.577Z,3.25
2022-12-15T12:22:01.337Z,3.47
2022-12-15T12:24:34.289Z,3.67
2022-12-15T12:27:06.298Z,5.20
2022-12-15T12:29:36.675Z,3.28
2022-12-15T12:32:12.582Z,3.90
2022-12-15T12:35:31.250Z,5.07
2022-12-15T12:37:46.796Z,4.18
2022-12-15T12:40:33.565Z,3.15
2022-12-15T12:43:02.160Z,3.90
2022-12-15T12:45:41.929Z,4.20
2022-12-15T12:48:25.733Z,3.40
2022-12-15T12:51:10.797Z,3.80
2022-12-15T12:53:42.010Z,3.45
2022-12-15T12:56:30.762Z,4.72
2022-12-15T12:58:58.846Z,6.05
2022-12-15T13:01:33.823Z,4.90
2022-12-15T13:04:13.187Z,4.30
2022-12-15T13:07:03.390Z,4.10
2022-12-15T13:10:02.682Z,3.75
2022-12-15T13:12:50.968Z,4.97
2022-12-15T13:15:36.023Z,3.00
2022-12-15T13:18:08.232Z,3.30
2022-12-15T13:20:38.819Z,3.75
2022-12-15T13:23:38.167Z,3.55
2022-12-15T13:26:19.406Z,3.55
2022-12-15T13:28:52.674Z,3.00
2022-12-15T13:31:43.102Z,2.88
2022-12-15T13:34:18.838Z,3.38
2022-12-15T13:36:55.408Z,3.58
2022-12-15T13:39:35.301Z,3.33
2022-12-15T13:45:40.715Z,4.05
2022-12-15T13:48:21.656Z,3.72
2022-12-15T13:50:57.059Z,2.63
2022-12-15T13:53:28.071Z,2.85
2022-12-15T13:56:07.096Z,3.33
2022-12-15T13:58:51.888Z,2.97
2022-12-15T14:04:04.935Z,4.15
2022-12-15T14:06:37.940Z,4.82
2022-12-15T14:09:08.309Z,3.28
2022-12-15T14:11:52.493Z,3.03
2022-12-15T14:16:59.350Z,3.80
2022-12-15T14:19:32.068Z,3.42
2022-12-15T14:22:02.811Z,3.45
2022-12-15T14:24:38.992Z,3.35
2022-12-15T14:27:07.658Z,4.07
2022-12-15T14:29:35.553Z,3.65
2022-12-15T14:32:06.903Z,3.75
2022-12-15T14:34:39.165Z,3.67
2022-12-15T14:37:12.284Z,3.45
2022-12-15T14:39:45.053Z,3.75
2022-12-15T14:42:19.870Z,3.20
2022-12-15T14:44:54.914Z,3.22
2022-12-15T14:47:27.958Z,4.15
2022-12-15T14:49:59.508Z,3.85
2022-12-15T14:52:33.650Z,3.88
2022-12-15T14:55:05.126Z,4.32
2022-12-15T14:57:43.248Z,4.07
2022-12-15T15:00:25.671Z,3.22
2022-12-15T15:03:04.235Z,3.90
2022-12-15T15:03:09.925Z,4.18
2022-12-15T15:05:51.257Z,4.40
2022-12-15T15:08:26.898Z,3.95
2022-12-15T15:10:58.473Z,2.70
2022-12-15T15:13:36.065Z,2.92
2022-12-15T15:16:09.907Z,3.05
2022-12-15T15:18:38.006Z,3.50
2022-12-15T15:21:16.251Z,3.30
2022-12-15T15:24:00.089Z,3.75
2022-12-15T15:26:30.964Z,2.65
2022-12-15T15:29:00.451Z,3.35
2022-12-15T15:31:40.338Z,4.30
2022-12-15T15:34:09.733Z,4.88
2022-12-15T15:36:39.942Z,3.75
2022-12-15T15:39:14.038Z,3.85
2022-12-15T15:41:46.329Z,3.72
2022-12-15T15:44:16.542Z,3.45
2022-12-15T15:46:49.618Z,4.10
2022-12-15T15:49:21.465Z,2.97
2022-12-15T15:51:50.120Z,2.78
2022-12-15T15:54:22.267Z,3.30
2022-12-15T15:56:52.077Z,2.97
2022-12-15T15:59:22.014Z,3.03
2022-12-15T16:02:02.342Z,2.53
2022-12-15T16:04:30.422Z,2.40
2022-12-15T16:07:01.170Z,3.40
2022-12-15T16:09:29.130Z,3.20
2022-12-15T16:11:59.407Z,3.75
2022-12-15T16:14:27.768Z,4.03
2022-12-15T16:16:55.864Z,5.57
2022-12-15T16:19:23.951Z,5.45
2022-12-15T16:21:52.220Z,4.97
2022-12-15T16:24:22.983Z,4.82
2022-12-15T16:26:52.205Z,5.10
2022-12-15T16:29:22.399Z,4.35
2022-12-15T16:31:50.400Z,4.50
2022-12-15T16:34:19.261Z,4.70
2022-12-15T16:36:47.388Z,6.32
2022-12-15T16:39:27.938Z,3.92
2022-12-15T16:41:57.615Z,5.93
2022-12-15T16:44:33.105Z,3.75
2022-12-15T16:47:01.219Z,4.10
2022-12-15T16:49:33.864Z,3.97
2022-12-15T16:52:08.736Z,4.45
2022-12-15T16:54:36.925Z,4.05
2022-12-15T16:57:05.627Z,4.45
2022-12-15T16:59:37.967Z,6.43
2022-12-15T17:02:24.982Z,4.80
2022-12-15T17:04:57.476Z,6.53
2022-12-15T17:07:28.045Z,7.85
2022-12-15T17:09:59.250Z,4.95
2022-12-15T17:12:27.650Z,6.85
2022-12-15T17:15:04.098Z,5.63
2022-12-15T17:17:32.265Z,7.07
2022-12-15T17:22:51.770Z,5.30
2022-12-15T17:25:45.940Z,5.93
2022-12-15T17:28:16.873Z,5.63
2022-12-15T17:30:46.948Z,4.88
2022-12-15T17:33:19.762Z,4.97
2022-12-15T17:35:53.507Z,5.30
2022-12-15T17:39:22.967Z,3.88
2022-12-15T17:42:00.005Z,6.38
2022-12-15T17:44:33.559Z,6.50
2022-12-15T17:47:05.514Z,6.15
2022-12-15T17:49:36.649Z,7.10
2022-12-15T17:52:09.152Z,4.80
2022-12-15T17:54:37.545Z,5.63
2022-12-15T17:57:05.324Z,5.22
2022-12-15T17:59:33.260Z,5.43
2022-12-15T18:02:01.256Z,6.07
2022-12-15T18:04:31.360Z,4.80
2022-12-15T18:07:03.479Z,7.32
2022-12-15T18:09:31.780Z,8.13
2022-12-15T18:11:59.635Z,5.90
2022-12-15T18:14:28.945Z,6.00
2022-12-15T18:17:07.826Z,5.63
2022-12-15T18:19:37.040Z,6.00
2022-12-15T18:22:05.246Z,5.93
2022-12-15T18:24:33.398Z,6.13
2022-12-15T18:27:01.497Z,5.32
2022-12-15T18:29:29.387Z,5.75
2022-12-15T18:31:59.558Z,6.00
2022-12-15T18:34:27.454Z,5.03
2022-12-15T18:36:56.743Z,5.18
2022-12-15T18:39:24.934Z,7.53
2022-12-15T18:41:54.995Z,5.63
2022-12-15T18:44:24.965Z,6.32
2022-12-15T18:46:53.306Z,5.57
2022-12-15T18:53:40.367Z,4.47
2022-12-15T18:56:14.453Z,6.25
2022-12-15T18:58:42.854Z,4.30
2022-12-15T19:01:11.816Z,4.97
2022-12-15T19:04:01.444Z,5.43
2022-12-15T19:06:35.792Z,5.32
2022-12-15T19:09:08.725Z,6.05
2022-12-15T19:11:36.662Z,5.03
2022-12-15T19:14:25.864Z,5.47
2022-12-15T19:17:11.322Z,4.53
2022-12-15T19:19:57.132Z,6.20
2022-12-15T19:22:29.709Z,5.25
2022-12-15T19:24:59.583Z,5.75
2022-12-15T19:27:27.468Z,6.32
2022-12-15T19:29:55.764Z,4.60
2022-12-15T19:32:24.429Z,6.50
2022-12-15T19:34:52.317Z,5.25
2022-12-15T19:37:26.227Z,5.00
2022-12-15T19:39:54.954Z,6.35
2022-12-15T19:42:29.708Z,5.15
2022-12-15T19:44:58.232Z,6.65
2022-12-15T19:47:27.015Z,6.65
2022-12-15T19:49:56.329Z,7.68
2022-12-15T19:52:24.536Z,5.22
2022-12-15T19:54:52.529Z,6.65
2022-12-15T19:57:21.036Z,6.97
2022-12-15T19:59:50.276Z,6.18
2022-12-15T20:02:20.379Z,5.43
2022-12-15T20:04:49.362Z,5.90
2022-12-15T20:07:20.471Z,5.32
2022-12-15T20:09:48.372Z,6.10
2022-12-15T20:12:18.774Z,6.43
2022-12-15T20:14:47.482Z,5.05
2022-12-15T20:17:16.746Z,5.57
2022-12-15T20:19:44.716Z,6.40
2022-12-15T20:22:15.946Z,7.82
2022-12-15T20:24:44.846Z,5.38
2022-12-15T20:27:14.246Z,6.35
2022-12-15T20:29:42.532Z,7.22
2022-12-15T20:32:17.272Z,5.50
2022-12-15T20:34:45.803Z,6.28
2022-12-15T20:37:19.549Z,6.20
2022-12-15T20:39:49.432Z,7.97
2022-12-15T20:42:21.900Z,6.07
2022-12-15T20:44:50.849Z,5.05
2022-12-15T20:47:22.938Z,7.75
2022-12-15T20:49:51.918Z,5.88
2022-12-15T20:52:22.742Z,5.10
2022-12-15T20:54:50.770Z,5.50
2022-12-15T20:57:18.920Z,4.72
2022-12-15T20:59:46.996Z,4.97
2022-12-15T21:02:22.595Z,5.00
2022-12-15T21:04:51.149Z,5.05
2022-12-15T21:07:19.751Z,4.47
2022-12-15T21:09:47.669Z,4.70
2022-12-15T21:12:21.924Z,4.05
2022-12-15T21:14:50.947Z,5.05
2022-12-15T21:17:22.575Z,3.97
2022-12-15T21:19:50.963Z,3.63
2022-12-15T21:22:21.866Z,3.63
2022-12-15T21:24:50.725Z,6.32
2022-12-15T21:27:18.746Z,6.00
2022-12-15T21:29:52.364Z,5.45
2022-12-15T21:32:22.674Z,4.28
2022-12-15T21:34:51.797Z,4.85
2022-12-15T21:37:24.733Z,4.50
2022-12-15T21:39:52.797Z,4.22
2022-12-15T21:42:21.782Z,3.35
2022-12-15T21:44:49.789Z,4.25
2022-12-15T21:47:47.238Z,4.40
2022-12-15T21:50:14.495Z,6.47
2022-12-15T21:52:43.011Z,4.57
2022-12-15T21:55:16.146Z,6.28
2022-12-15T21:57:44.052Z,4.43
2022-12-15T22:00:15.312Z,4.78
2022-12-15T22:02:45.293Z,6.00
2022-12-15T22:05:17.659Z,5.57
2022-12-15T22:07:52.632Z,5.97
2022-12-15T22:10:22.604Z,5.47
2022-12-15T22:12:58.971Z,6.53
2022-12-15T22:15:29.965Z,5.53
2022-12-15T22:18:02.283Z,5.97
2022-12-15T22:20:30.737Z,6.07
2022-12-15T22:23:04.862Z,7.10
2022-12-15T22:25:32.847Z,7.95
2022-12-15T22:28:08.029Z,6.47
2022-12-15T22:30:35.863Z,7.90
2022-12-15T22:33:21.542Z,7.45
2022-12-15T22:35:50.842Z,5.75
2022-12-15T22:38:25.854Z,6.93
2022-12-15T22:41:05.148Z,6.53
2022-12-15T22:43:36.882Z,5.88
2022-12-15T22:46:08.968Z,5.55
2022-12-15T22:48:42.182Z,4.28
2022-12-15T22:51:13.880Z,5.57
2022-12-15T22:53:44.738Z,7.20
2022-12-15T22:56:27.033Z,5.57
2022-12-15T22:59:00.784Z,6.05
2022-12-15T23:01:30.599Z,3.80
2022-12-15T23:03:59.995Z,5.68
2022-12-15T23:06:28.372Z,6.00
2022-12-15T23:08:56.503Z,5.97
2022-12-15T23:11:39.451Z,5.28
2022-12-15T23:14:11.815Z,4.65
2022-12-15T23:16:39.299Z,6.07
2022-12-15T23:19:09.017Z,6.00
2022-12-15T23:21:37.460Z,4.75
2022-12-15T23:24:05.688Z,4.55
2022-12-15T23:26:33.906Z,4.95
2022-12-15T23:29:01.646Z,4.80
2022-12-15T23:31:29.622Z,3.63
2022-12-15T23:33:57.542Z,6.28
2022-12-15T23:36:26.687Z,5.03
2022-12-15T23:38:55.121Z,5.18
2022-12-15T23:41:22.944Z,4.35
2022-12-15T23:43:53.537Z,4.30
2022-12-15T23:46:21.437Z,3.50
2022-12-15T23:48:50.330Z,3.38
2022-12-15T23:51:21.361Z,3.30
2022-12-15T23:53:51.165Z,5.18
2022-12-15T23:56:21.995Z,4.97
2022-12-15T23:58:57.288Z,4.95
